Time;durP1;ratioP1;P1;durP2;ratioP2;P2;SDS_P1;SDS_P2;PMS_P1;PMS_P2;Temp;Humidity;BMP_temperature;BMP_pressure;BME280_temperature;BME280_humidity;BME280_pressure;Samples;Min_cycle;Max_cycle;Signal;HPM_P1;HPM_P2
2022/11/11 00:00:49;;;;;;;11.07;7.27;;;6.40;99.90;;;;;;5073164;28;20490;-77
2022/11/11 00:03:15;;;;;;;17.47;7.43;;;6.50;99.90;;;;;;5091614;28;20443;-77
2022/11/11 00:05:41;;;;;;;11.87;7.37;;;6.50;99.90;;;;;;5091478;28;20424;-76
2022/11/11 00:08:07;;;;;;;15.73;7.30;;;6.40;99.90;;;;;;5091454;28;20441;-76
2022/11/11 00:10:33;;;;;;;10.50;6.50;;;6.40;99.90;;;;;;5091266;28;20191;-77
2022/11/11 00:13:04;;;;;;;10.70;6.70;;;6.30;99.90;;;;;;5092847;28;20214;-77
2022/11/11 00:15:30;;;;;;;16.27;7.10;;;6.30;99.90;;;;;;5074706;28;20998;-76
2022/11/11 00:26:12;;;;;;;10.93;5.27;;;5.90;99.90;;;;;;5092692;28;20497;-76
2022/11/11 00:28:38;;;;;;;10.63;6.10;;;5.90;99.90;;;;;;5091992;28;20472;-77
2022/11/11 00:31:09;;;;;;;6.60;5.50;;;5.90;99.90;;;;;;5073755;28;20448;-77
2022/11/11 00:33:36;;;;;;;9.40;5.67;;;5.80;99.90;;;;;;5091637;28;20788;-77
2022/11/11 00:36:01;;;;;;;7.80;5.53;;;5.70;99.90;;;;;;5072982;28;20424;-78
2022/11/11 00:38:46;;;;;;;7.30;5.60;;;5.70;99.90;;;;;;5073204;28;20439;-77
2022/11/11 00:41:14;;;;;;;14.37;6.90;;;5.70;99.90;;;;;;5090831;28;20397;-76
2022/11/11 00:43:40;;;;;;;8.10;6.63;;;5.60;99.90;;;;;;5090988;28;20452;-77
2022/11/11 00:51:34;;;;;;;18.40;7.43;;;5.60;99.90;;;;;;5075636;28;20395;-76
2022/11/11 00:54:00;;;;;;;8.23;6.70;;;5.70;99.90;;;;;;5055858;28;20516;-78
2022/11/11 00:56:26;;;;;;;11.97;6.07;;;5.70;99.90;;;;;;5055883;28;20187;-78
2022/11/11 00:58:52;;;;;;;10.53;5.90;;;5.60;99.90;;;;;;5090704;28;20201;-79
2022/11/11 01:01:18;;;;;;;16.17;6.77;;;5.60;99.90;;;;;;5039668;28;20959;-79
2022/11/11 01:03:44;;;;;;;8.20;7.30;;;5.60;99.90;;;;;;5056673;28;20484;-80
2022/11/11 01:06:11;;;;;;;12.70;7.03;;;5.60;99.90;;;;;;5073715;28;20478;-79
2022/11/11 01:08:37;;;;;;;9.77;6.13;;;5.50;99.90;;;;;;5091814;28;20210;-79
2022/11/11 01:11:03;;;;;;;10.03;6.40;;;5.50;99.90;;;;;;5072801;28;20427;-79
2022/11/11 01:13:31;;;;;;;12.30;6.67;;;5.50;99.90;;;;;;5072605;28;20217;-78
2022/11/11 01:16:00;;;;;;;13.43;6.30;;;5.40;99.90;;;;;;5056057;28;20443;-79
2022/11/11 01:18:26;;;;;;;10.40;6.60;;;5.50;99.90;;;;;;5072230;28;20441;-78
2022/11/11 01:21:07;;;;;;;9.93;6.57;;;5.40;99.90;;;;;;5072458;28;20428;-79
2022/11/11 01:23:35;;;;;;;13.70;6.00;;;5.50;99.90;;;;;;5055611;28;20288;-78
2022/11/11 01:26:03;;;;;;;12.97;5.87;;;5.40;99.90;;;;;;5090320;28;20431;-78
2022/11/11 01:28:29;;;;;;;8.37;6.37;;;5.30;99.90;;;;;;5090552;28;20864;-78
2022/11/11 01:31:03;;;;;;;13.53;7.83;;;5.40;99.90;;;;;;5072454;28;20569;-79
2022/11/11 01:33:29;;;;;;;23.90;16.37;;;5.30;99.90;;;;;;5072023;28;20517;-78
2022/11/11 01:35:54;;;;;;;10.33;6.60;;;5.30;99.90;;;;;;5071979;28;20424;-78
2022/11/11 01:38:20;;;;;;;14.13;6.57;;;5.20;99.90;;;;;;5038966;28;20826;-79
2022/11/11 01:40:47;;;;;;;10.27;5.83;;;5.30;99.90;;;;;;5038840;28;20187;-79
2022/11/11 01:43:18;;;;;;;5.73;5.07;;;5.20;99.90;;;;;;5071868;28;20197;-79
2022/11/11 01:45:52;;;;;;;9.77;5.70;;;5.40;99.90;;;;;;5071709;28;21023;-79
2022/11/11 01:51:49;;;;;;;8.40;5.37;;;5.20;99.90;;;;;;5090188;28;20461;-79
2022/11/11 01:54:26;;;;;;;11.07;6.03;;;5.20;99.90;;;;;;5065580;28;20421;-79
2022/11/11 01:56:58;;;;;;;6.50;4.93;;;5.10;99.90;;;;;;5072485;28;20437;-78
2022/11/11 01:59:23;;;;;;;6.40;5.00;;;5.00;99.90;;;;;;5055209;28;20440;-78
2022/11/11 02:01:49;;;;;;;14.03;5.77;;;5.10;99.90;;;;;;5071197;28;20858;-78
2022/11/11 02:07:06;;;;;;;9.17;5.93;;;5.10;99.90;;;;;;5089761;28;20271;-79
2022/11/11 02:09:31;;;;;;;8.77;5.77;;;5.00;99.90;;;;;;5089201;28;20443;-78
2022/11/11 02:14:48;;;;;;;9.23;5.83;;;5.10;99.90;;;;;;5089461;28;20615;-79
2022/11/11 02:17:15;;;;;;;9.07;6.30;;;5.10;99.90;;;;;;5054358;28;20433;-78
2022/11/11 02:19:44;;;;;;;10.37;6.57;;;5.10;99.90;;;;;;5088837;28;20497;-78
2022/11/11 02:22:22;;;;;;;8.00;5.17;;;5.10;99.90;;;;;;5089195;28;20417;-79
2022/11/11 02:24:50;;;;;;;9.60;6.57;;;5.10;99.90;;;;;;5088932;28;20465;-80
2022/11/11 02:27:17;;;;;;;14.13;6.90;;;5.10;99.90;;;;;;5070574;28;20432;-77
2022/11/11 02:29:47;;;;;;;11.70;6.80;;;5.10;99.90;;;;;;5071062;28;20520;-77
2022/11/11 02:32:13;;;;;;;18.37;6.50;;;5.10;99.90;;;;;;5088834;28;20460;-77
2022/11/11 02:34:39;;;;;;;9.90;5.97;;;5.20;99.90;;;;;;5070618;28;20432;-78
2022/11/11 02:37:07;;;;;;;11.10;6.20;;;5.30;99.90;;;;;;5053863;28;20272;-78
2022/11/11 02:39:36;;;;;;;10.10;6.40;;;5.10;99.90;;;;;;5088803;28;20194;-79
2022/11/11 02:42:09;;;;;;;10.53;6.40;;;5.10;99.90;;;;;;5053728;28;20466;-79
2022/11/11 02:44:36;;;;;;;10.80;5.97;;;5.00;99.90;;;;;;5054703;28;20465;-80
2022/11/11 02:47:02;;;;;;;14.13;7.10;;;5.00;99.90;;;;;;5088748;28;20933;-81
2022/11/11 02:49:28;;;;;;;12.40;7.00;;;5.00;99.90;;;;;;5054055;28;20456;-79
2022/11/11 02:51:54;;;;;;;9.47;6.90;;;4.90;99.90;;;;;;5070372;28;20517;-77
2022/11/11 02:54:19;;;;;;;8.73;5.90;;;4.90;99.90;;;;;;5053679;28;20277;-77
2022/11/11 02:59:29;;;;;;;8.13;5.33;;;4.90;99.90;;;;;;5073167;28;20213;-76
2022/11/11 03:01:54;;;;;;;9.47;6.40;;;4.90;99.90;;;;;;5088514;28;20448;-78
2022/11/11 03:04:20;;;;;;;8.30;5.20;;;4.90;99.90;;;;;;5088806;28;20183;-78
2022/11/11 03:06:45;;;;;;;5.80;4.60;;;4.80;99.90;;;;;;5088478;28;20191;-76
2022/11/11 03:09:11;;;;;;;7.23;3.80;;;4.80;99.90;;;;;;5088603;28;20214;-78
2022/11/11 03:11:37;;;;;;;7.93;4.50;;;4.90;99.90;;;;;;5071877;28;20193;-78
2022/11/11 03:14:03;;;;;;;8.73;4.60;;;4.80;99.90;;;;;;5040804;28;20186;-81
2022/11/11 03:19:13;;;;;;;7.93;4.50;;;4.80;99.90;;;;;;5092510;28;20466;-78
2022/11/11 03:21:39;;;;;;;7.67;4.80;;;4.80;99.90;;;;;;5058281;28;20464;-81
2022/11/11 03:24:05;;;;;;;6.37;5.00;;;4.80;99.90;;;;;;5074454;28;20182;-81
2022/11/11 03:26:31;;;;;;;6.90;5.30;;;4.80;99.90;;;;;;5057523;28;20903;-77
2022/11/11 03:28:56;;;;;;;10.70;6.03;;;4.80;99.90;;;;;;5073644;28;20444;-78
2022/11/11 03:31:22;;;;;;;13.73;5.90;;;4.90;99.90;;;;;;5073626;28;20207;-77
2022/11/11 03:33:48;;;;;;;15.63;6.90;;;4.90;99.90;;;;;;5073546;28;20230;-77
2022/11/11 03:36:14;;;;;;;9.47;5.50;;;4.90;99.90;;;;;;5091843;28;20217;-77
2022/11/11 03:38:39;;;;;;;7.00;5.33;;;4.90;99.90;;;;;;5073638;28;20440;-78
2022/11/11 03:41:05;;;;;;;7.70;6.00;;;4.90;99.90;;;;;;5073539;28;20190;-77
2022/11/11 03:43:33;;;;;;;10.73;5.87;;;4.90;99.90;;;;;;5092006;28;20269;-78
2022/11/11 03:46:00;;;;;;;14.15;6.10;;;4.90;99.90;;;;;;5073321;28;20197;-79
2022/11/11 03:48:30;;;;;;;8.63;5.77;;;4.90;99.90;;;;;;5073676;28;20770;-81
2022/11/11 03:50:56;;;;;;;9.37;5.43;;;4.90;99.90;;;;;;5073801;28;20428;-78
2022/11/11 03:53:22;;;;;;;8.43;5.60;;;4.90;99.90;;;;;;5057688;28;20471;-78
2022/11/11 03:55:48;;;;;;;6.47;4.60;;;4.90;99.90;;;;;;5073855;28;20194;-80
2022/11/11 03:58:14;;;;;;;10.97;5.83;;;4.80;99.90;;;;;;5073108;28;20820;-80
2022/11/11 04:00:40;;;;;;;8.53;5.83;;;4.80;99.90;;;;;;5056856;28;20459;-80
2022/11/11 04:11:26;;;;;;;9.47;5.87;;;4.80;99.90;;;;;;5062068;28;20588;-78
2022/11/11 04:16:40;;;;;;;10.67;6.63;;;4.80;99.90;;;;;;5076438;28;20408;-79
2022/11/11 04:21:49;;;;;;;9.37;6.60;;;4.80;99.90;;;;;;5061428;28;20786;-79
2022/11/11 04:27:03;;;;;;;9.60;5.90;;;4.80;99.90;;;;;;5091638;28;20178;-80
2022/11/11 04:29:29;;;;;;;8.80;5.20;;;4.70;99.90;;;;;;5072733;28;20439;-79
2022/11/11 04:34:48;;;;;;;7.20;6.00;;;4.60;99.90;;;;;;5091062;28;20411;-79
2022/11/11 04:37:14;;;;;;;6.20;5.03;;;4.60;99.90;;;;;;5072701;28;21069;-81
2022/11/11 04:42:25;;;;;;;11.33;5.90;;;4.50;99.90;;;;;;5075957;28;20415;-80
2022/11/11 04:47:35;;;;;;;12.17;5.70;;;4.50;99.90;;;;;;5091555;28;20403;-79
2022/11/11 04:50:00;;;;;;;14.90;6.50;;;4.50;99.90;;;;;;5056702;28;20429;-79
2022/11/11 04:52:26;;;;;;;10.17;6.67;;;4.30;99.90;;;;;;5056605;28;20218;-78
2022/11/11 04:57:44;;;;;;;13.10;6.90;;;4.30;99.90;;;;;;5092485;28;20211;-82
2022/11/11 05:00:15;;;;;;;14.87;8.60;;;4.50;99.90;;;;;;5073366;28;20430;-82
2022/11/11 05:05:26;;;;;;;16.60;8.80;;;4.50;99.90;;;;;;5061482;28;20426;-82
2022/11/11 05:10:40;;;;;;;10.60;6.83;;;4.40;99.90;;;;;;5091183;28;20412;-82
2022/11/11 05:21:24;;;;;;;11.83;8.13;;;4.60;99.90;;;;;;5074674;28;20428;-83
2022/11/11 05:26:34;;;;;;;9.80;8.07;;;4.60;99.90;;;;;;5089918;28;21018;-83
2022/11/11 05:29:00;;;;;;;13.13;7.53;;;4.70;99.90;;;;;;5070985;28;20452;-83
2022/11/11 05:31:27;;;;;;;17.80;8.83;;;4.50;99.90;;;;;;5071057;28;20186;-84
2022/11/11 05:33:52;;;;;;;10.60;6.80;;;4.40;99.90;;;;;;5053934;28;20456;-84
2022/11/11 05:36:18;;;;;;;11.77;8.03;;;4.40;99.90;;;;;;5054035;28;20435;-84
2022/11/11 05:38:44;;;;;;;10.80;7.40;;;4.30;99.90;;;;;;5037759;28;20229;-84
2022/11/11 05:41:10;;;;;;;12.10;7.37;;;4.30;99.90;;;;;;5055830;28;20324;-83
2022/11/11 05:43:35;;;;;;;13.70;7.47;;;4.30;99.90;;;;;;5090467;28;20987;-83
2022/11/11 05:46:01;;;;;;;11.17;7.70;;;4.30;99.90;;;;;;5072407;28;20420;-83
2022/11/11 05:48:26;;;;;;;11.50;7.57;;;4.30;99.90;;;;;;5055197;28;20232;-84
2022/11/11 05:50:52;;;;;;;10.40;7.17;;;4.40;99.90;;;;;;5063539;28;20197;-83
2022/11/11 05:53:22;;;;;;;13.30;7.40;;;4.40;99.90;;;;;;5097320;28;20265;-81
2022/11/11 05:55:49;;;;;;;11.90;7.70;;;4.50;99.90;;;;;;5052740;28;20632;-83
2022/11/11 05:58:17;;;;;;;18.23;9.10;;;4.30;99.90;;;;;;5043562;28;20512;-83
2022/11/11 06:00:43;;;;;;;10.30;7.20;;;4.30;99.90;;;;;;5042540;28;20421;-83
2022/11/11 06:03:08;;;;;;;10.70;7.83;;;4.20;99.90;;;;;;5075016;28;20436;-82
2022/11/11 06:05:37;;;;;;;11.10;6.37;;;4.10;99.90;;;;;;5057011;28;20998;-83
2022/11/11 06:08:04;;;;;;;10.90;6.78;;;4.10;99.90;;;;;;5092185;28;20349;-84
2022/11/11 06:10:29;;;;;;;20.93;6.90;;;4.20;99.90;;;;;;5056270;28;20668;-83
2022/11/11 06:13:08;;;;;;;8.63;6.63;;;4.10;99.90;;;;;;5070639;28;20476;-83
2022/11/11 06:15:35;;;;;;;10.75;6.70;;;4.20;99.90;;;;;;5055397;28;20186;-83
2022/11/11 06:18:02;;;;;;;9.95;6.05;;;4.30;99.90;;;;;;5088658;28;20697;-83
2022/11/11 06:20:28;;;;;;;9.45;7.03;;;4.30;99.90;;;;;;5053593;28;20185;-82
2022/11/11 06:22:56;;;;;;;11.00;6.60;;;4.30;99.90;;;;;;5070052;28;20190;-83
2022/11/11 06:28:18;;;;;;;8.63;6.05;;;4.30;99.90;;;;;;5075212;28;20220;-83
2022/11/11 06:30:45;;;;;;;6.10;5.40;;;4.30;99.90;;;;;;5070820;28;20197;-83
2022/11/11 06:33:10;;;;;;;6.60;5.32;;;4.20;99.90;;;;;;5054581;28;21391;-83
2022/11/11 06:35:37;;;;;;;14.13;6.80;;;4.20;99.90;;;;;;5054899;28;20190;-83
2022/11/11 06:38:04;;;;;;;7.13;5.00;;;4.20;99.90;;;;;;5070685;28;20532;-83
2022/11/11 06:40:30;;;;;;;10.17;6.37;;;4.20;99.90;;;;;;5054500;28;20420;-84
2022/11/11 06:43:00;;;;;;;10.63;6.65;;;4.30;99.90;;;;;;5054514;28;20431;-83
2022/11/11 06:45:27;;;;;;;11.07;7.82;;;4.30;99.90;;;;;;5089256;28;20185;-83
2022/11/11 06:47:53;;;;;;;8.55;7.03;;;4.50;99.90;;;;;;5058415;28;20616;-83
2022/11/11 06:50:19;;;;;;;10.57;7.13;;;4.30;99.90;;;;;;5060200;28;20269;-85
2022/11/11 06:52:45;;;;;;;7.57;6.30;;;4.30;99.90;;;;;;5060136;28;20550;-83
2022/11/11 06:55:11;;;;;;;6.03;5.20;;;4.30;99.90;;;;;;5060311;28;20524;-83
2022/11/11 06:57:37;;;;;;;8.88;5.47;;;4.30;99.90;;;;;;5096936;28;20186;-82
2022/11/11 07:00:05;;;;;;;12.63;6.30;;;4.40;99.90;;;;;;5060021;28;20202;-82
2022/11/11 07:02:31;;;;;;;10.30;6.60;;;4.40;99.90;;;;;;5076095;28;20528;-83
2022/11/11 07:04:57;;;;;;;5.53;4.83;;;4.50;99.90;;;;;;5042886;28;20190;-84
2022/11/11 07:07:23;;;;;;;7.67;5.57;;;4.60;99.90;;;;;;5075179;28;20431;-82
2022/11/11 07:09:48;;;;;;;12.57;6.80;;;4.70;99.90;;;;;;5041764;28;20581;-83
2022/11/11 07:12:14;;;;;;;19.07;8.87;;;4.80;99.90;;;;;;5058314;28;20210;-83
2022/11/11 07:14:40;;;;;;;9.97;7.37;;;4.70;99.90;;;;;;5058563;28;20190;-83
2022/11/11 07:17:06;;;;;;;11.60;6.17;;;4.70;99.90;;;;;;5057990;28;20768;-84
2022/11/11 07:19:31;;;;;;;8.43;6.70;;;4.80;99.90;;;;;;5041694;28;20201;-84
2022/11/11 07:21:57;;;;;;;8.80;6.67;;;4.90;99.90;;;;;;5042125;28;20461;-82
2022/11/11 07:24:23;;;;;;;9.77;6.73;;;5.00;99.90;;;;;;5093489;28;20532;-84
2022/11/11 07:26:48;;;;;;;6.90;6.17;;;5.00;99.90;;;;;;5042440;28;20246;-84
2022/11/11 07:29:14;;;;;;;8.20;5.63;;;5.10;99.90;;;;;;5058751;28;20293;-84
2022/11/11 07:31:40;;;;;;;8.53;5.40;;;5.20;99.90;;;;;;5058084;28;20186;-82
2022/11/11 07:34:06;;;;;;;7.32;5.05;;;5.40;99.90;;;;;;5041523;28;20854;-84
2022/11/11 07:36:32;;;;;;;8.60;6.97;;;5.50;99.90;;;;;;5093056;28;20177;-82
2022/11/11 07:38:58;;;;;;;8.07;5.10;;;5.60;99.90;;;;;;5093178;28;20939;-84
2022/11/11 07:41:23;;;;;;;10.10;4.53;;;5.80;99.90;;;;;;5057517;28;20506;-83
2022/11/11 07:43:49;;;;;;;3.97;3.57;;;5.90;99.90;;;;;;5057270;28;20186;-84
2022/11/11 07:46:14;;;;;;;14.03;4.50;;;6.00;99.90;;;;;;5056834;28;20702;-83
2022/11/11 07:48:40;;;;;;;6.70;4.53;;;6.20;99.90;;;;;;5073596;28;20234;-83
2022/11/11 07:51:06;;;;;;;6.50;4.50;;;6.20;99.90;;;;;;5040438;28;20954;-83
2022/11/11 07:53:31;;;;;;;7.40;4.80;;;6.20;99.90;;;;;;5073445;28;20230;-84
2022/11/11 07:55:57;;;;;;;8.93;5.97;;;6.30;99.90;;;;;;5056045;28;20813;-83
2022/11/11 07:58:22;;;;;;;8.30;6.40;;;6.40;99.90;;;;;;5072704;28;20683;-82
2022/11/11 08:00:48;;;;;;;10.00;7.70;;;6.40;99.90;;;;;;5039007;28;20272;-84
2022/11/11 08:03:14;;;;;;;22.10;12.97;;;6.40;99.90;;;;;;5040269;28;20203;-83
2022/11/11 08:05:39;;;;;;;29.23;17.97;;;6.50;99.90;;;;;;5039226;28;20187;-83
2022/11/11 08:08:07;;;;;;;21.23;11.17;;;6.50;99.90;;;;;;5039338;28;20206;-83
2022/11/11 08:10:33;;;;;;;10.83;9.50;;;6.60;99.90;;;;;;5072702;28;20182;-83
2022/11/11 08:15:43;;;;;;;15.30;10.27;;;6.80;99.90;;;;;;5090878;28;20400;-83
2022/11/11 08:18:09;;;;;;;21.43;13.13;;;7.20;99.90;;;;;;5072138;28;20445;-83
2022/11/11 08:20:35;;;;;;;17.93;11.70;;;7.60;99.90;;;;;;5055394;28;20456;-82
2022/11/11 08:23:03;;;;;;;14.47;10.90;;;7.80;99.90;;;;;;5090448;28;20427;-82
2022/11/11 08:25:29;;;;;;;17.30;13.23;;;8.20;99.90;;;;;;5072631;28;20427;-83
2022/11/11 08:28:00;;;;;;;16.63;12.13;;;8.80;99.90;;;;;;5071854;28;20835;-82
2022/11/11 08:30:27;;;;;;;20.37;13.13;;;9.20;99.90;;;;;;5072079;28;20488;-82
2022/11/11 08:33:03;;;;;;;19.30;13.13;;;9.50;99.90;;;;;;5055428;28;20482;-82
2022/11/11 08:35:30;;;;;;;21.20;14.13;;;9.80;99.90;;;;;;5055976;28;20429;-82
2022/11/11 08:38:01;;;;;;;20.83;13.20;;;10.30;99.90;;;;;;5072310;28;20450;-82
2022/11/11 08:40:26;;;;;;;13.33;11.20;;;10.90;99.90;;;;;;5072589;28;20447;-83
2022/11/11 08:42:56;;;;;;;8.90;7.63;;;11.30;99.90;;;;;;5056321;28;20905;-82
2022/11/11 08:45:22;;;;;;;10.30;6.87;;;11.80;99.90;;;;;;5073374;28;20593;-81
2022/11/11 08:47:47;;;;;;;13.33;7.60;;;12.00;99.90;;;;;;5039558;28;20427;-81
2022/11/11 08:50:13;;;;;;;10.07;7.27;;;12.40;99.90;;;;;;5057209;28;20488;-81
2022/11/11 08:52:48;;;;;;;7.00;6.30;;;12.60;99.90;;;;;;5072163;28;20237;-82
2022/11/11 08:55:14;;;;;;;14.10;9.40;;;13.00;99.90;;;;;;5072808;28;20177;-83
2022/11/11 08:57:40;;;;;;;11.40;9.60;;;13.10;99.90;;;;;;5073915;28;20883;-81
2022/11/11 09:00:07;;;;;;;15.00;9.20;;;13.10;99.90;;;;;;5039546;28;20525;-82
2022/11/11 09:02:32;;;;;;;11.87;9.10;;;12.80;99.90;;;;;;5072078;28;20275;-81
2022/11/11 09:04:58;;;;;;;12.00;10.37;;;13.10;99.90;;;;;;5072785;28;20455;-83
2022/11/11 09:07:24;;;;;;;15.50;10.67;;;12.90;99.90;;;;;;5056580;28;20190;-82
2022/11/11 09:09:49;;;;;;;12.83;8.73;;;12.80;99.90;;;;;;5054794;28;20700;-82
2022/11/11 09:12:15;;;;;;;11.20;8.60;;;12.30;99.90;;;;;;5038492;28;20222;-83
2022/11/11 09:14:40;;;;;;;11.67;8.53;;;12.10;99.90;;;;;;5039209;28;20217;-82
2022/11/11 09:17:06;;;;;;;10.40;8.27;;;12.30;99.90;;;;;;5071943;28;20180;-83
2022/11/11 09:19:32;;;;;;;10.60;7.47;;;12.60;99.90;;;;;;5054608;28;20209;-83
2022/11/11 09:21:57;;;;;;;11.00;7.70;;;13.10;99.90;;;;;;5055910;28;20265;-82
2022/11/11 09:24:23;;;;;;;7.70;6.87;;;13.40;99.90;;;;;;5055832;28;20957;-82
2022/11/11 09:26:50;;;;;;;12.27;8.40;;;13.30;99.90;;;;;;5071674;28;20188;-83
2022/11/11 09:29:16;;;;;;;10.00;7.27;;;13.90;99.90;;;;;;5055563;28;20214;-83
2022/11/11 09:31:42;;;;;;;10.47;7.33;;;14.40;99.90;;;;;;5072024;28;20442;-82
2022/11/11 09:34:08;;;;;;;9.33;8.37;;;15.00;99.90;;;;;;5054063;28;21068;-82
2022/11/11 09:36:34;;;;;;;12.63;8.17;;;15.80;99.90;;;;;;5071071;28;20269;-82
2022/11/11 09:38:59;;;;;;;10.63;8.03;;;16.70;99.90;;;;;;5054442;28;20217;-82
2022/11/11 09:41:53;;;;;;;13.30;7.37;;;17.30;99.60;;;;;;5054497;28;20218;-83
2022/11/11 09:44:47;;;;;;;8.90;8.00;;;18.30;97.60;;;;;;5071312;28;20179;-83
2022/11/11 09:47:34;;;;;;;11.53;7.73;;;19.00;95.00;;;;;;5070330;28;20427;-82
2022/11/11 09:50:03;;;;;;;9.03;7.40;;;19.60;92.90;;;;;;5070736;28;20421;-82
2022/11/11 09:52:43;;;;;;;11.33;7.40;;;20.10;92.40;;;;;;5054185;28;20475;-83
2022/11/11 09:55:21;;;;;;;7.37;6.67;;;20.30;91.50;;;;;;5070255;28;20898;-82
2022/11/11 09:58:02;;;;;;;7.40;5.97;;;20.80;90.40;;;;;;5088326;28;20434;-82
2022/11/11 10:00:30;;;;;;;7.17;5.20;;;20.90;89.00;;;;;;5070404;28;20412;-84
2022/11/11 10:03:29;;;;;;;7.63;5.87;;;20.80;86.30;;;;;;5069991;28;20452;-83
2022/11/11 10:06:13;;;;;;;7.30;4.80;;;20.60;87.90;;;;;;5070363;28;20420;-83
2022/11/11 10:08:51;;;;;;;6.13;5.40;;;20.70;87.00;;;;;;5070061;28;20488;-81
2022/11/11 10:11:38;;;;;;;11.90;6.10;;;20.70;87.50;;;;;;5077712;28;20419;-81
2022/11/11 10:14:03;;;;;;;41.67;7.37;;;20.60;85.90;;;;;;5088673;28;20462;-82
2022/11/11 10:17:00;;;;;;;9.67;6.80;;;20.40;88.00;;;;;;5070568;28;20924;-82
2022/11/11 10:19:41;;;;;;;12.03;6.83;;;20.20;88.50;;;;;;5071208;28;20209;-82
2022/11/11 10:22:37;;;;;;;6.77;6.03;;;19.50;88.70;;;;;;5070334;28;20465;-83
2022/11/11 10:25:28;;;;;;;8.10;6.47;;;19.00;90.60;;;;;;5087936;28;20432;-82
2022/11/11 10:27:57;;;;;;;6.83;5.40;;;18.40;91.70;;;;;;5089717;28;20477;-82
2022/11/11 10:30:27;;;;;;;9.60;6.27;;;17.90;93.50;;;;;;5094335;28;20418;-82
2022/11/11 10:33:00;;;;;;;10.97;5.37;;;17.90;94.30;;;;;;5039693;28;20542;-82
2022/11/11 10:35:28;;;;;;;6.60;5.20;;;17.70;94.80;;;;;;5089317;28;20879;-82
2022/11/11 10:38:05;;;;;;;5.60;4.60;;;17.60;94.60;;;;;;5070749;28;21019;-83
2022/11/11 10:40:45;;;;;;;9.20;5.67;;;17.60;95.20;;;;;;5069820;28;20427;-83
2022/11/11 10:43:37;;;;;;;11.83;10.67;;;17.80;95.40;;;;;;5088288;28;20424;-82
2022/11/11 10:46:05;;;;;;;8.30;6.10;;;18.20;94.90;;;;;;5050320;28;20857;-83
2022/11/11 10:49:01;;;;;;;17.50;9.90;;;18.10;94.20;;;;;;5069527;28;20459;-83
2022/11/11 10:51:35;;;;;;;11.20;5.33;;;18.30;94.60;;;;;;5087302;28;20997;-83
2022/11/11 10:54:08;;;;;;;10.93;7.43;;;18.10;94.90;;;;;;5069218;28;20466;-82
2022/11/11 10:57:05;;;;;;;10.10;6.50;;;18.20;95.60;;;;;;5070090;28;20839;-82
2022/11/11 10:59:38;;;;;;;9.17;5.80;;;18.40;95.50;;;;;;5070013;28;20532;-83
2022/11/11 11:02:30;;;;;;;51.20;37.50;;;18.10;95.30;;;;;;5069680;28;20497;-83
2022/11/11 11:05:04;;;;;;;11.53;8.83;;;17.90;95.50;;;;;;5064805;28;20420;-83
2022/11/11 11:07:39;;;;;;;17.20;12.73;;;17.30;97.00;;;;;;5069849;28;20427;-83
2022/11/11 11:10:18;;;;;;;7.47;4.40;;;16.90;99.30;;;;;;5069939;28;20420;-84
2022/11/11 11:12:54;;;;;;;6.93;5.67;;;16.60;99.90;;;;;;5071405;28;20466;-83
2022/11/11 11:15:22;;;;;;;11.00;5.60;;;16.50;99.90;;;;;;5069176;28;20413;-84
2022/11/11 11:18:11;;;;;;;13.30;5.33;;;16.40;99.90;;;;;;5090826;28;20417;-82
2022/11/11 11:20:36;;;;;;;7.80;4.37;;;16.30;99.90;;;;;;5092642;28;20521;-82
2022/11/11 11:23:02;;;;;;;6.17;4.60;;;16.10;99.90;;;;;;5057249;28;20962;-83
2022/11/11 11:25:32;;;;;;;6.40;4.50;;;15.70;99.90;;;;;;5057841;28;20614;-82
2022/11/11 11:28:23;;;;;;;6.30;5.00;;;15.50;99.90;;;;;;5056950;28;20492;-83
2022/11/11 11:31:01;;;;;;;7.93;5.20;;;15.60;99.90;;;;;;5071584;28;20464;-83
2022/11/11 11:33:27;;;;;;;40.10;26.97;;;15.50;99.90;;;;;;5077047;28;20473;-84
2022/11/11 11:35:52;;;;;;;28.23;19.17;;;15.40;99.90;;;;;;5060512;28;20478;-83
2022/11/11 11:38:18;;;;;;;21.00;13.90;;;15.30;99.90;;;;;;5060983;28;20213;-83
2022/11/11 11:40:45;;;;;;;11.50;6.27;;;15.30;99.90;;;;;;5058276;28;20188;-83
2022/11/11 11:43:26;;;;;;;19.13;12.40;;;15.30;99.90;;;;;;5073696;28;20580;-83
2022/11/11 11:46:00;;;;;;;6.97;5.30;;;15.50;99.90;;;;;;5073365;28;20476;-83
2022/11/11 11:48:34;;;;;;;6.37;5.30;;;15.40;99.90;;;;;;5040377;28;20444;-83
2022/11/11 11:51:23;;;;;;;7.67;5.83;;;15.30;99.90;;;;;;5073213;28;20432;-83
2022/11/11 11:54:03;;;;;;;7.33;5.87;;;15.30;99.90;;;;;;5072012;28;20483;-83
2022/11/11 11:56:40;;;;;;;9.33;6.60;;;15.20;99.90;;;;;;5072096;28;20433;-82
2022/11/11 11:59:26;;;;;;;7.70;5.87;;;15.20;99.90;;;;;;5072082;28;20505;-83
2022/11/11 12:01:59;;;;;;;7.70;5.23;;;15.20;99.90;;;;;;5071900;28;20472;-83
2022/11/11 12:04:49;;;;;;;9.27;5.30;;;15.10;99.90;;;;;;5072676;28;20994;-83
2022/11/11 12:07:26;;;;;;;8.10;7.00;;;15.10;99.90;;;;;;5072683;28;20424;-83
2022/11/11 12:10:05;;;;;;;10.33;6.50;;;15.20;99.90;;;;;;5090885;28;20527;-82
2022/11/11 12:12:36;;;;;;;8.60;5.30;;;15.30;99.90;;;;;;5072966;28;20465;-82
2022/11/11 12:15:14;;;;;;;9.10;5.63;;;15.50;99.90;;;;;;5072967;28;20425;-82
2022/11/11 12:17:58;;;;;;;21.90;15.30;;;15.60;99.90;;;;;;5091438;28;20433;-82
2022/11/11 12:20:57;;;;;;;10.87;5.60;;;15.80;99.90;;;;;;5073077;28;20512;-83
2022/11/11 12:23:57;;;;;;;7.37;4.93;;;15.90;99.90;;;;;;5073032;28;20935;-83
2022/11/11 12:26:33;;;;;;;6.57;5.20;;;15.70;99.90;;;;;;5073158;28;20425;-83
2022/11/11 12:28:59;;;;;;;12.03;7.07;;;15.40;99.90;;;;;;5091156;28;21171;-82
2022/11/11 12:32:02;;;;;;;14.43;8.00;;;15.40;99.90;;;;;;5073362;28;20424;-83
2022/11/11 12:34:54;;;;;;;8.10;6.57;;;15.30;99.90;;;;;;5073129;28;20197;-81
2022/11/11 12:37:31;;;;;;;7.17;5.63;;;15.20;99.90;;;;;;5072677;28;20421;-83
2022/11/11 12:40:11;;;;;;;9.53;6.00;;;15.20;99.90;;;;;;5072846;28;20437;-82
2022/11/11 12:42:59;;;;;;;6.83;6.13;;;15.00;99.90;;;;;;5072949;28;20498;-82
2022/11/11 12:45:34;;;;;;;10.23;7.10;;;15.00;99.90;;;;;;5090548;28;20389;-82
2022/11/11 12:48:27;;;;;;;192.63;100.47;;;15.10;99.90;;;;;;5072707;28;20425;-83
2022/11/11 12:51:16;;;;;;;131.00;66.47;;;15.20;99.90;;;;;;5092265;28;20948;-82
2022/11/11 12:54:25;;;;;;;115.90;71.63;;;15.30;99.90;;;;;;5073217;28;20512;-82
2022/11/11 12:57:22;;;;;;;9.37;6.50;;;15.20;99.90;;;;;;5084985;28;20434;-83
2022/11/11 13:00:09;;;;;;;9.37;6.10;;;14.90;99.90;;;;;;5072302;28;20451;-83
2022/11/11 13:02:53;;;;;;;9.50;6.33;;;14.80;99.90;;;;;;5072219;28;20449;-83
2022/11/11 13:05:29;;;;;;;6.70;5.43;;;14.80;99.90;;;;;;5072374;28;20424;-82
2022/11/11 13:08:20;;;;;;;9.50;5.83;;;14.80;99.90;;;;;;5072129;28;20499;-83
2022/11/11 13:11:06;;;;;;;11.17;5.97;;;14.80;99.90;;;;;;5089856;28;20400;-83
2022/11/11 13:13:42;;;;;;;10.07;6.73;;;14.80;99.90;;;;;;5089510;28;20973;-83
2022/11/11 13:16:08;;;;;;;8.90;6.53;;;14.70;99.90;;;;;;5071490;28;20435;-83
2022/11/11 13:18:47;;;;;;;8.47;5.97;;;14.80;99.90;;;;;;5038237;28;20507;-84
2022/11/11 13:21:21;;;;;;;7.57;5.77;;;15.00;99.90;;;;;;5092709;28;20413;-84
2022/11/11 13:23:46;;;;;;;10.80;5.83;;;14.90;99.90;;;;;;5055976;28;20586;-84
2022/11/11 13:26:25;;;;;;;7.83;5.73;;;15.00;99.90;;;;;;5039014;28;20542;-85
2022/11/11 13:29:05;;;;;;;28.23;18.63;;;15.00;99.90;;;;;;5090266;28;20206;-82
2022/11/11 13:31:35;;;;;;;12.63;8.80;;;14.90;99.90;;;;;;5071722;28;20502;-82
2022/11/11 13:34:10;;;;;;;27.17;20.93;;;14.80;99.90;;;;;;5090505;28;20823;-82
2022/11/11 13:36:47;;;;;;;17.70;7.80;;;14.80;99.90;;;;;;5071814;28;20500;-82
2022/11/11 13:39:46;;;;;;;11.47;7.20;;;14.60;99.90;;;;;;5071691;28;20957;-84
2022/11/11 13:42:21;;;;;;;9.27;6.40;;;14.60;99.90;;;;;;5032700;28;20490;-83
2022/11/11 13:44:57;;;;;;;6.00;5.40;;;14.40;99.90;;;;;;5071459;28;21222;-79
2022/11/11 13:47:31;;;;;;;9.47;6.30;;;14.30;99.90;;;;;;5071452;28;20456;-79
2022/11/11 13:50:20;;;;;;;15.90;6.63;;;14.30;99.90;;;;;;5089463;28;20515;-79
2022/11/11 13:53:00;;;;;;;8.70;6.07;;;14.20;99.90;;;;;;5063027;28;20456;-79
2022/11/11 13:55:32;;;;;;;11.03;6.27;;;14.20;99.90;;;;;;5071561;28;20914;-78
2022/11/11 13:58:02;;;;;;;9.33;6.17;;;14.20;99.90;;;;;;5090074;28;20440;-80
2022/11/11 14:00:33;;;;;;;8.50;5.93;;;14.20;99.90;;;;;;5055170;28;20431;-80
2022/11/11 14:03:17;;;;;;;9.70;5.77;;;14.20;99.90;;;;;;5089340;28;20479;-77
2022/11/11 14:05:44;;;;;;;10.07;6.00;;;14.20;99.90;;;;;;5089236;28;20537;-77
2022/11/11 14:08:29;;;;;;;12.10;5.50;;;14.20;99.90;;;;;;5070945;28;20517;-79
2022/11/11 14:10:58;;;;;;;8.83;5.77;;;14.30;99.90;;;;;;5070598;28;20825;-79
2022/11/11 14:13:33;;;;;;;6.20;5.60;;;14.20;99.90;;;;;;5070941;28;20499;-79
2022/11/11 14:15:59;;;;;;;7.10;5.13;;;14.10;99.90;;;;;;5089615;28;20396;-79
2022/11/11 14:18:24;;;;;;;8.13;5.77;;;14.10;99.90;;;;;;5054077;28;20544;-80
2022/11/11 14:20:55;;;;;;;9.60;5.63;;;14.00;99.90;;;;;;5070776;28;20186;-81
2022/11/11 14:23:37;;;;;;;6.93;6.23;;;14.00;99.90;;;;;;5054718;28;20190;-80